Time;durP1;ratioP1;P1;durP2;ratioP2;P2;SDS_P1;SDS_P2;PMS_P1;PMS_P2;Temp;Humidity;BMP_temperature;BMP_pressure;BME280_temperature;BME280_humidity;BME280_pressure;Samples;Min_cycle;Max_cycle;Signal;HPM_P1;HPM_P2
2024/03/15 06:00:56;;;;;;;6.03;2.65;;;9.70;92.90;;;;;;4626232;23;20113;-87
2024/03/15 06:03:01;;;;;;;6.03;2.50;;;9.70;92.80;;;;;;4091448;28;20048;-86
2024/03/15 06:05:05;;;;;;;6.40;2.88;;;9.70;93.10;;;;;;4090028;28;20059;-87
2024/03/15 06:07:07;;;;;;;6.20;2.33;;;9.70;93.00;;;;;;4095814;28;20130;-88
2024/03/15 06:09:13;;;;;;;6.20;2.60;;;9.70;93.00;;;;;;4092126;29;20051;-87
2024/03/15 06:11:16;;;;;;;5.53;2.67;;;9.70;93.00;;;;;;4092817;28;20054;-86
2024/03/15 06:13:19;;;;;;;4.22;2.30;;;9.70;92.90;;;;;;4073245;28;20044;-87
2024/03/15 06:15:21;;;;;;;5.18;2.47;;;9.70;92.70;;;;;;4093611;28;20048;-87
2024/03/15 06:17:23;;;;;;;5.35;2.65;;;9.70;92.70;;;;;;4094492;28;20147;-86
2024/03/15 06:19:26;;;;;;;5.93;2.95;;;9.70;92.70;;;;;;4095225;28;20485;-88
2024/03/15 06:21:29;;;;;;;5.25;2.25;;;9.80;92.70;;;;;;4080953;28;20084;-85
2024/03/15 06:23:32;;;;;;;7.22;2.33;;;9.80;92.10;;;;;;4078930;29;20128;-88
2024/03/15 06:25:33;;;;;;;6.55;2.50;;;9.80;91.90;;;;;;4088958;29;20083;-88
2024/03/15 06:27:35;;;;;;;5.15;2.55;;;9.90;92.20;;;;;;4088523;29;20489;-89
2024/03/15 06:29:43;;;;;;;4.60;2.15;;;9.90;92.00;;;;;;4072710;29;20099;-88
2024/03/15 06:31:45;;;;;;;5.68;2.38;;;9.90;91.80;;;;;;4088841;28;20055;-88
2024/03/15 06:33:49;;;;;;;4.95;2.40;;;10.00;91.60;;;;;;4088063;29;20080;-88
2024/03/15 06:35:57;;;;;;;5.40;2.40;;;10.00;91.40;;;;;;4093531;28;20483;-88
2024/03/15 06:38:07;;;;;;;4.60;2.13;;;10.00;91.40;;;;;;4100103;28;20048;-88
2024/03/15 06:40:18;;;;;;;5.97;2.75;;;10.10;91.30;;;;;;4092314;28;20172;-87
2024/03/15 06:42:23;;;;;;;7.10;2.60;;;10.00;91.30;;;;;;4077020;29;20066;-87
2024/03/15 06:44:45;;;;;;;7.53;3.10;;;10.10;91.30;;;;;;4076871;28;20044;-87
2024/03/15 06:49:13;;;;;;;17.55;8.38;;;10.10;91.50;;;;;;4090687;28;20053;-88
2024/03/15 06:53:35;;;;;;;5.10;2.78;;;10.00;91.90;;;;;;4078702;29;20059;-86
2024/03/15 06:55:38;;;;;;;5.80;2.50;;;10.00;91.50;;;;;;4056403;29;20044;-88
2024/03/15 06:57:41;;;;;;;5.82;2.50;;;10.00;91.40;;;;;;4056628;29;20100;-87
2024/03/15 06:59:43;;;;;;;4.63;2.33;;;10.00;91.20;;;;;;4040799;29;20419;-88
2024/03/15 07:01:45;;;;;;;5.13;2.60;;;10.10;91.20;;;;;;4071055;29;20080;-88
2024/03/15 07:03:50;;;;;;;6.40;2.83;;;10.10;91.10;;;;;;4055698;29;20136;-88
2024/03/15 07:05:52;;;;;;;6.38;3.20;;;10.20;91.10;;;;;;4057610;29;20057;-86
2024/03/15 07:07:53;;;;;;;7.45;2.65;;;10.20;90.90;;;;;;4043126;29;20085;-86
2024/03/15 07:09:56;;;;;;;6.53;2.80;;;10.30;90.80;;;;;;4082454;29;20281;-88
2024/03/15 07:11:58;;;;;;;6.82;2.75;;;10.20;90.70;;;;;;4068495;29;20486;-88
2024/03/15 07:14:02;;;;;;;6.57;2.90;;;10.30;90.60;;;;;;4084895;29;20062;-87
2024/03/15 07:16:07;;;;;;;5.63;2.70;;;10.30;90.50;;;;;;4085418;28;20142;-86
2024/03/15 07:18:09;;;;;;;6.28;2.63;;;10.40;90.50;;;;;;4084914;28;20063;-87
2024/03/15 07:20:12;;;;;;;5.97;2.80;;;10.50;90.30;;;;;;4084895;29;20055;-85
2024/03/15 07:22:15;;;;;;;7.13;2.47;;;10.50;90.20;;;;;;4102837;28;20114;-86
2024/03/15 07:24:16;;;;;;;5.65;2.90;;;10.50;90.20;;;;;;4072083;29;20167;-84
2024/03/15 07:26:19;;;;;;;4.88;2.40;;;10.60;90.10;;;;;;4086314;29;20050;-86
2024/03/15 07:28:21;;;;;;;6.10;2.42;;;10.60;90.00;;;;;;4085870;28;20044;-86
2024/03/15 07:30:23;;;;;;;5.88;2.38;;;10.70;90.00;;;;;;4101157;28;20485;-87
2024/03/15 07:32:27;;;;;;;4.75;2.25;;;10.70;89.70;;;;;;4084551;29;20048;-87
2024/03/15 07:34:30;;;;;;;4.88;2.30;;;10.80;89.80;;;;;;4069661;28;20048;-86
2024/03/15 07:36:32;;;;;;;6.97;2.25;;;10.80;89.40;;;;;;4084668;28;20458;-85
2024/03/15 07:38:34;;;;;;;4.90;2.30;;;10.90;89.40;;;;;;4084413;28;20043;-87
2024/03/15 07:40:37;;;;;;;4.72;2.20;;;11.00;89.00;;;;;;4083558;29;20044;-86
2024/03/15 07:42:39;;;;;;;5.57;2.20;;;11.00;88.80;;;;;;4068402;29;20066;-86
2024/03/15 07:44:43;;;;;;;5.35;2.17;;;11.10;88.50;;;;;;4038121;29;20056;-85
2024/03/15 07:46:46;;;;;;;4.75;2.20;;;11.20;88.20;;;;;;4084135;29;20048;-86
2024/03/15 07:48:49;;;;;;;5.97;2.17;;;11.30;88.20;;;;;;4084103;29;20048;-89
2024/03/15 07:50:52;;;;;;;4.70;2.10;;;11.30;88.10;;;;;;4053374;29;20135;-87
2024/03/15 07:52:54;;;;;;;5.32;2.22;;;11.40;88.10;;;;;;4037385;29;20057;-87
2024/03/15 07:54:56;;;;;;;6.60;2.10;;;11.50;87.80;;;;;;4084020;29;20464;-85
2024/03/15 07:56:58;;;;;;;5.82;2.25;;;11.50;87.60;;;;;;4052674;29;20140;-87
2024/03/15 07:59:01;;;;;;;4.47;2.03;;;11.60;87.50;;;;;;4075108;29;20596;-86
2024/03/15 08:01:07;;;;;;;6.55;2.22;;;11.60;87.40;;;;;;4052883;29;20486;-85
2024/03/15 08:03:10;;;;;;;6.68;2.10;;;11.70;87.60;;;;;;4069253;28;20068;-88
2024/03/15 08:05:16;;;;;;;5.13;2.30;;;11.80;87.40;;;;;;4084083;28;20050;-88
2024/03/15 08:07:19;;;;;;;4.70;2.05;;;11.80;87.30;;;;;;4084620;28;20507;-87
2024/03/15 08:09:23;;;;;;;5.05;2.25;;;11.90;86.80;;;;;;4083572;28;20492;-87
2024/03/15 08:11:25;;;;;;;5.57;1.92;;;12.00;86.70;;;;;;4084622;28;20155;-88
2024/03/15 08:13:28;;;;;;;6.10;2.20;;;12.10;86.70;;;;;;4084012;29;20052;-85
2024/03/15 08:15:32;;;;;;;5.53;2.17;;;12.10;87.10;;;;;;4100065;28;20392;-86
2024/03/15 08:17:35;;;;;;;4.38;2.08;;;12.20;86.20;;;;;;4084543;28;20527;-87
2024/03/15 08:19:38;;;;;;;6.47;2.03;;;12.30;85.80;;;;;;4085290;28;20055;-87
2024/03/15 08:21:39;;;;;;;4.68;1.95;;;12.30;85.60;;;;;;4084086;28;20054;-89
2024/03/15 08:23:42;;;;;;;4.15;1.92;;;12.40;84.70;;;;;;4086863;29;20051;-86
2024/03/15 08:25:44;;;;;;;4.75;2.00;;;12.50;84.80;;;;;;4071583;28;20137;-87
2024/03/15 08:27:46;;;;;;;4.82;1.95;;;12.60;84.90;;;;;;4087590;29;20539;-86
2024/03/15 08:29:49;;;;;;;4.38;1.90;;;12.70;84.50;;;;;;4087139;29;20127;-86
2024/03/15 08:31:51;;;;;;;4.90;1.90;;;12.70;84.00;;;;;;4087305;29;20056;-86
2024/03/15 08:33:54;;;;;;;5.10;2.08;;;12.80;83.80;;;;;;4087442;28;20532;-87
2024/03/15 08:35:56;;;;;;;6.47;2.35;;;12.90;83.80;;;;;;4087217;29;20055;-88
2024/03/15 08:38:01;;;;;;;5.00;2.13;;;12.90;83.90;;;;;;4089678;29;20150;-86
2024/03/15 08:40:06;;;;;;;3.93;1.80;;;13.00;83.50;;;;;;4087971;28;20096;-86
2024/03/15 08:42:08;;;;;;;4.00;2.05;;;13.10;83.80;;;;;;4087164;28;20343;-87
2024/03/15 08:44:11;;;;;;;4.35;2.03;;;13.10;83.80;;;;;;4087077;29;20051;-87
2024/03/15 08:46:13;;;;;;;4.93;2.08;;;13.20;83.60;;;;;;4071399;29;20051;-87
2024/03/15 08:48:17;;;;;;;3.83;1.80;;;13.30;82.60;;;;;;4086478;28;20481;-88
2024/03/15 08:50:20;;;;;;;4.65;2.00;;;13.30;82.80;;;;;;4087039;28;20088;-87
2024/03/15 08:52:22;;;;;;;5.55;2.42;;;13.40;82.30;;;;;;4086875;28;20404;-87
2024/03/15 08:54:24;;;;;;;5.60;2.30;;;13.40;83.10;;;;;;4086400;29;20107;-88
2024/03/15 08:56:27;;;;;;;5.80;2.10;;;13.40;83.30;;;;;;4055048;29;20048;-87
2024/03/15 08:58:29;;;;;;;4.28;2.00;;;13.50;82.30;;;;;;4069616;29;20483;-86
2024/03/15 09:00:33;;;;;;;5.55;2.22;;;13.50;81.80;;;;;;4066264;29;20049;-87
2024/03/15 09:02:36;;;;;;;7.18;2.30;;;13.60;81.50;;;;;;4061789;29;20140;-86
2024/03/15 09:04:38;;;;;;;4.22;2.08;;;13.70;81.60;;;;;;4055434;29;20429;-86
2024/03/15 09:06:40;;;;;;;5.05;2.08;;;13.70;79.40;;;;;;4057864;29;20482;-85
2024/03/15 09:08:48;;;;;;;7.20;2.40;;;13.80;80.00;;;;;;4057702;29;20045;-87
2024/03/15 09:10:51;;;;;;;4.70;2.03;;;13.80;80.40;;;;;;4072623;28;20048;-87
2024/03/15 09:12:53;;;;;;;5.30;1.83;;;13.80;79.90;;;;;;4086206;28;20055;-86
2024/03/15 09:14:57;;;;;;;4.88;2.13;;;13.90;79.90;;;;;;4086581;28;20118;-87
2024/03/15 09:16:59;;;;;;;5.65;2.47;;;13.90;79.90;;;;;;4086443;28;20047;-88
2024/03/15 09:19:02;;;;;;;5.20;2.45;;;13.90;80.10;;;;;;4087064;29;20568;-87
2024/03/15 09:21:06;;;;;;;5.63;1.90;;;13.90;80.00;;;;;;4086227;28;20457;-86
2024/03/15 09:23:08;;;;;;;4.85;1.92;;;14.00;80.40;;;;;;4085749;28;20051;-87
2024/03/15 09:25:18;;;;;;;4.35;2.05;;;14.00;80.00;;;;;;4086187;28;20055;-85
2024/03/15 09:27:21;;;;;;;3.92;2.05;;;14.10;80.10;;;;;;4073106;28;20089;-87
2024/03/15 09:29:27;;;;;;;5.20;2.25;;;14.10;79.40;;;;;;4090182;28;20059;-86
2024/03/15 09:31:30;;;;;;;6.55;2.10;;;14.20;78.00;;;;;;4089140;28;20048;-87
2024/03/15 09:33:34;;;;;;;5.90;2.08;;;14.20;78.50;;;;;;4085858;28;20161;-87
2024/03/15 09:35:40;;;;;;;6.50;2.40;;;14.30;78.30;;;;;;4086240;28;20086;-87
2024/03/15 09:37:46;;;;;;;4.45;1.85;;;14.30;77.50;;;;;;4087351;28;20092;-88
2024/03/15 09:39:49;;;;;;;5.75;1.95;;;14.30;77.60;;;;;;4091084;28;20142;-86
2024/03/15 09:41:51;;;;;;;3.80;1.90;;;14.40;77.70;;;;;;4102135;28;20079;-87
2024/03/15 09:43:54;;;;;;;5.15;2.10;;;14.50;78.00;;;;;;4092143;29;20051;-86
2024/03/15 09:45:56;;;;;;;5.47;1.92;;;14.50;76.80;;;;;;4088126;28;20052;-86
2024/03/15 09:47:59;;;;;;;3.90;1.90;;;14.50;77.00;;;;;;4085655;29;20449;-86
2024/03/15 09:50:00;;;;;;;4.32;2.20;;;14.70;77.20;;;;;;4086132;29;20069;-87
2024/03/15 09:52:05;;;;;;;4.10;1.70;;;14.80;76.50;;;;;;4086138;29;20545;-84
2024/03/15 09:54:08;;;;;;;4.28;1.80;;;14.80;76.50;;;;;;4073253;28;20573;-87
2024/03/15 09:56:14;;;;;;;3.65;1.77;;;14.80;76.10;;;;;;4090522;28;20059;-87
2024/03/15 09:58:16;;;;;;;;;;;14.90;75.60;;;;;;4087839;28;20564;-87
2024/03/15 10:00:21;;;;;;;5.60;2.00;;;14.90;75.70;;;;;;4086847;28;19923;-85
2024/03/15 10:02:23;;;;;;;4.33;1.70;;;15.00;75.10;;;;;;4089232;28;20056;-84
2024/03/15 10:04:26;;;;;;;5.32;1.77;;;15.00;75.40;;;;;;4070769;29;20374;-85
2024/03/15 10:06:28;;;;;;;4.72;1.70;;;15.10;75.40;;;;;;4071601;29;20048;-86
2024/03/15 10:08:30;;;;;;;5.25;1.50;;;15.20;75.20;;;;;;4067224;29;20051;-86
2024/03/15 10:10:34;;;;;;;5.03;1.80;;;15.20;75.00;;;;;;4054581;29;20051;-85
2024/03/15 10:12:35;;;;;;;4.45;1.83;;;15.30;74.80;;;;;;4054785;29;20143;-85
2024/03/15 10:14:37;;;;;;;5.07;2.00;;;15.40;74.50;;;;;;4039137;29;20101;-85
2024/03/15 10:16:39;;;;;;;4.45;1.70;;;15.40;73.10;;;;;;4069591;29;20056;-85
2024/03/15 10:18:42;;;;;;;4.28;1.77;;;15.50;73.70;;;;;;4069793;29;20067;-85
2024/03/15 10:20:46;;;;;;;5.50;1.85;;;15.60;73.00;;;;;;4073918;29;20052;-84
2024/03/15 10:22:50;;;;;;;7.18;1.77;;;15.70;73.70;;;;;;4073159;29;20087;-84
2024/03/15 10:24:53;;;;;;;5.03;1.65;;;15.90;73.30;;;;;;4070016;29;20052;-84
2024/03/15 10:26:55;;;;;;;6.72;2.10;;;16.00;72.30;;;;;;4053769;29;20079;-84
2024/03/15 10:28:57;;;;;;;4.35;1.65;;;16.10;71.80;;;;;;4060651;28;20405;-84
2024/03/15 10:31:00;;;;;;;3.65;1.60;;;16.20;71.80;;;;;;4072000;29;20104;-81
2024/03/15 10:33:03;;;;;;;3.88;1.70;;;16.30;70.00;;;;;;4049672;29;20052;-83
2024/03/15 10:35:06;;;;;;;5.70;1.70;;;16.40;70.40;;;;;;4055778;29;20581;-85
2024/03/15 10:37:10;;;;;;;3.28;1.30;;;16.40;70.10;;;;;;4075597;28;20527;-85
2024/03/15 10:39:13;;;;;;;4.15;1.60;;;16.40;70.10;;;;;;4052838;29;20589;-89
2024/03/15 10:41:15;;;;;;;4.80;1.67;;;16.50;70.10;;;;;;4052744;29;20056;-88
2024/03/15 10:43:17;;;;;;;5.88;1.70;;;16.60;70.10;;;;;;4043986;29;20053;-86
2024/03/15 10:45:20;;;;;;;5.18;1.30;;;16.80;69.40;;;;;;4069528;29;20052;-84
2024/03/15 10:47:22;;;;;;;3.95;1.45;;;16.90;68.20;;;;;;4053191;29;20722;-86
2024/03/15 10:49:25;;;;;;;4.60;1.50;;;16.90;67.10;;;;;;4053724;29;20108;-88
2024/03/15 10:51:27;;;;;;;3.22;1.50;;;17.00;66.50;;;;;;4053986;29;20437;-84
2024/03/15 10:53:30;;;;;;;3.67;1.60;;;16.90;65.90;;;;;;4059098;29;20145;-86
2024/03/15 10:55:32;;;;;;;5.13;1.63;;;16.90;67.30;;;;;;4076157;29;20043;-88
2024/03/15 10:57:34;;;;;;;3.85;1.40;;;16.90;66.40;;;;;;4069389;29;20111;-86
2024/03/15 10:59:37;;;;;;;5.65;1.50;;;16.80;66.60;;;;;;4084348;29;20048;-84
2024/03/15 11:01:39;;;;;;;4.65;1.50;;;16.70;66.30;;;;;;4076672;29;20114;-85
2024/03/15 11:03:42;;;;;;;4.72;1.50;;;16.70;67.60;;;;;;4076341;29;20055;-84
2024/03/15 11:05:44;;;;;;;3.00;1.20;;;16.60;67.40;;;;;;4096863;28;20078;-85
2024/03/15 11:07:47;;;;;;;5.25;1.50;;;16.60;67.50;;;;;;4069973;29;20052;-85
2024/03/15 11:09:49;;;;;;;5.70;1.63;;;16.60;68.10;;;;;;4069046;28;20060;-84
2024/03/15 11:12:01;;;;;;;4.35;1.55;;;16.50;66.90;;;;;;4068802;29;20048;-84
2024/03/15 11:14:11;;;;;;;5.32;1.60;;;16.50;66.70;;;;;;4068315;29;20048;-81
2024/03/15 11:16:24;;;;;;;3.45;1.30;;;16.40;66.60;;;;;;4083462;29;20055;-84
2024/03/15 11:18:34;;;;;;;3.63;1.50;;;16.40;67.20;;;;;;4069255;29;20409;-85
2024/03/15 11:20:45;;;;;;;3.05;1.25;;;16.40;67.90;;;;;;4069044;29;20076;-79
2024/03/15 11:22:55;;;;;;;3.38;1.40;;;16.20;68.80;;;;;;4083341;29;20043;-80
2024/03/15 11:24:59;;;;;;;4.28;1.60;;;16.20;69.20;;;;;;4083468;28;20127;-78
2024/03/15 11:27:03;;;;;;;3.55;1.55;;;16.20;70.00;;;;;;4068024;28;20056;-81
2024/03/15 11:29:05;;;;;;;3.63;1.48;;;16.10;70.70;;;;;;4068016;29;20091;-80
2024/03/15 11:31:17;;;;;;;5.90;1.60;;;16.20;70.90;;;;;;4067653;29;20056;-80
2024/03/15 11:33:19;;;;;;;3.95;1.50;;;16.20;71.20;;;;;;4068298;28;20044;-79
2024/03/15 11:35:22;;;;;;;4.38;1.60;;;16.10;70.30;;;;;;4067887;29;20088;-79
2024/03/15 11:37:24;;;;;;;4.50;1.70;;;16.20;71.00;;;;;;4083873;28;20103;-80
2024/03/15 11:39:25;;;;;;;3.72;1.50;;;16.30;70.40;;;;;;4068507;29;20048;-81
2024/03/15 11:41:27;;;;;;;3.35;1.70;;;16.30;69.90;;;;;;4099279;29;20146;-79
2024/03/15 11:43:30;;;;;;;4.57;1.50;;;16.40;70.10;;;;;;4083468;29;20531;-80
2024/03/15 11:45:32;;;;;;;4.85;1.45;;;16.30;69.90;;;;;;4083300;29;20639;-80
2024/03/15 11:47:34;;;;;;;3.53;1.50;;;16.40;70.50;;;;;;4067904;29;20084;-80
2024/03/15 11:49:36;;;;;;;4.30;1.70;;;16.40;71.20;;;;;;4099134;28;20094;-80
2024/03/15 11:51:39;;;;;;;4.15;1.50;;;16.40;71.90;;;;;;4099101;29;20520;-81
2024/03/15 11:53:41;;;;;;;3.50;1.40;;;16.40;70.80;;;;;;4083342;28;20048;-80
2024/03/15 11:55:43;;;;;;;4.22;1.58;;;16.40;71.00;;;;;;4083587;29;20056;-79
2024/03/15 11:57:45;;;;;;;3.45;1.40;;;16.40;70.50;;;;;;4070294;29;20408;-78
2024/03/15 11:59:47;;;;;;;4.03;1.42;;;16.40;71.20;;;;;;4071386;29;20060;-81
2024/03/15 12:01:49;;;;;;;4.07;1.50;;;16.50;71.40;;;;;;4080127;29;20484;-80
2024/03/15 12:03:50;;;;;;;4.25;1.38;;;16.60;70.50;;;;;;4070535;29;20063;-79
2024/03/15 12:05:53;;;;;;;6.03;1.67;;;16.70;70.30;;;;;;4086838;29;20054;-80
2024/03/15 12:07:55;;;;;;;3.03;1.33;;;16.80;69.80;;;;;;4071454;28;20405;-81
2024/03/15 12:10:01;;;;;;;4.55;1.50;;;17.00;69.30;;;;;;4090366;29;20525;-81
2024/03/15 12:12:03;;;;;;;4.97;1.60;;;17.10;68.60;;;;;;4072294;28;20521;-80
2024/03/15 12:14:05;;;;;;;4.13;1.50;;;17.10;69.10;;;;;;4087072;28;20043;-80
2024/03/15 12:16:10;;;;;;;4.07;1.45;;;16.90;66.50;;;;;;4070692;29;20059;-80
2024/03/15 12:18:14;;;;;;;3.55;1.35;;;16.80;66.50;;;;;;4102881;28;20507;-79
2024/03/15 12:20:15;;;;;;;3.28;1.38;;;16.80;67.10;;;;;;4086376;28;20055;-78
2024/03/15 12:22:17;;;;;;;3.67;1.65;;;16.80;67.30;;;;;;4086352;29;20055;-78
2024/03/15 12:24:19;;;;;;;3.58;1.35;;;16.90;67.60;;;;;;4085995;29;20413;-81
2024/03/15 12:26:20;;;;;;;4.32;1.20;;;16.90;65.40;;;;;;4070278;29;20119;-78
2024/03/15 12:28:23;;;;;;;4.43;1.25;;;16.80;63.90;;;;;;4070510;29;20495;-79
2024/03/15 12:30:25;;;;;;;3.42;1.23;;;16.80;64.00;;;;;;4070501;29;20060;-78
2024/03/15 12:32:33;;;;;;;3.15;1.30;;;16.80;64.30;;;;;;4101840;28;20051;-79
2024/03/15 12:34:35;;;;;;;4.60;1.02;;;16.80;63.30;;;;;;4072618;28;20059;-78
2024/03/15 12:36:37;;;;;;;3.33;1.27;;;16.80;62.40;;;;;;4086114;29;20052;-78
2024/03/15 12:38:38;;;;;;;3.42;1.00;;;16.80;62.40;;;;;;4085916;29;20099;-79
2024/03/15 12:40:42;;;;;;;4.13;1.33;;;16.80;62.60;;;;;;4083617;29;20497;-79
2024/03/15 12:42:44;;;;;;;4.45;1.10;;;16.80;63.10;;;;;;4071085;28;20505;-77
2024/03/15 12:44:46;;;;;;;2.60;1.00;;;16.80;62.80;;;;;;4070163;29;20098;-79
2024/03/15 12:46:47;;;;;;;3.58;1.10;;;16.60;62.70;;;;;;4070288;29;20064;-78
2024/03/15 12:48:50;;;;;;;3.78;1.30;;;16.60;63.60;;;;;;4085630;29;20052;-79
2024/03/15 12:50:52;;;;;;;4.13;1.20;;;16.60;64.80;;;;;;4070241;29;20108;-79
2024/03/15 12:52:54;;;;;;;3.28;1.20;;;16.60;65.60;;;;;;4085890;29;20083;-80
2024/03/15 12:54:56;;;;;;;3.05;1.30;;;16.50;65.20;;;;;;4085791;29;20437;-78
2024/03/15 12:56:58;;;;;;;2.85;1.10;;;16.50;65.30;;;;;;4086287;29;20055;-79
2024/03/15 12:59:00;;;;;;;3.47;1.38;;;16.50;65.60;;;;;;4071645;29;20104;-80
2024/03/15 13:01:03;;;;;;;6.03;1.42;;;16.50;65.60;;;;;;4054134;29;20060;-79
2024/03/15 13:03:05;;;;;;;3.15;1.17;;;16.50;65.60;;;;;;4040613;29;20053;-78
2024/03/15 13:05:07;;;;;;;3.38;1.30;;;16.40;66.00;;;;;;4039377;29;20052;-78
2024/03/15 13:07:08;;;;;;;2.97;1.15;;;16.40;65.50;;;;;;4055569;29;20067;-79
2024/03/15 13:09:10;;;;;;;3.90;1.10;;;16.50;66.00;;;;;;4068908;29;20044;-80
2024/03/15 13:11:13;;;;;;;2.55;1.00;;;16.50;65.90;;;;;;4054461;29;20124;-78
2024/03/15 13:13:15;;;;;;;3.15;1.35;;;16.50;65.70;;;;;;4056288;29;20060;-84
2024/03/15 13:15:16;;;;;;;2.22;1.02;;;16.70;65.90;;;;;;4054302;29;20052;-80
2024/03/15 13:17:19;;;;;;;4.40;1.27;;;16.90;65.30;;;;;;4054794;29;20131;-80
2024/03/15 13:19:21;;;;;;;4.55;1.30;;;17.00;64.10;;;;;;4071909;29;20056;-83
2024/03/15 13:21:23;;;;;;;3.38;1.33;;;17.30;63.90;;;;;;4072259;29;20076;-84
2024/03/15 13:23:24;;;;;;;4.20;1.10;;;17.70;62.80;;;;;;4072384;29;20096;-80
2024/03/15 13:25:27;;;;;;;4.18;1.42;;;17.90;62.10;;;;;;4057063;29;20048;-80
2024/03/15 13:27:29;;;;;;;3.35;1.40;;;18.00;61.80;;;;;;4062553;29;20052;-82
2024/03/15 13:29:31;;;;;;;5.28;1.65;;;17.80;62.10;;;;;;4057185;29;20048;-82
2024/03/15 13:31:33;;;;;;;3.67;1.30;;;17.60;62.50;;;;;;4063637;29;20052;-81
2024/03/15 13:33:39;;;;;;;3.67;1.20;;;17.30;63.50;;;;;;4061135;29;20490;-84
2024/03/15 13:35:43;;;;;;;3.83;1.17;;;17.10;64.10;;;;;;4058860;29;20569;-83
2024/03/15 13:37:45;;;;;;;3.30;1.27;;;16.90;64.30;;;;;;4052092;29;20056;-77
2024/03/15 13:39:47;;;;;;;2.80;1.20;;;16.90;64.60;;;;;;4067248;29;20103;-80
2024/03/15 13:41:51;;;;;;;4.82;1.27;;;16.70;64.40;;;;;;4066887;29;20100;-80
2024/03/15 13:43:52;;;;;;;3.33;0.93;;;16.70;64.70;;;;;;4063189;29;20052;-78
2024/03/15 13:45:57;;;;;;;3.28;1.10;;;16.60;63.40;;;;;;4067211;29;20132;-79
2024/03/15 13:47:59;;;;;;;3.43;1.10;;;16.70;63.50;;;;;;4067331;29;20052;-80
2024/03/15 13:50:01;;;;;;;3.05;1.00;;;16.60;61.50;;;;;;4051782;29;20047;-79
2024/03/15 13:52:06;;;;;;;3.63;1.10;;;16.50;61.70;;;;;;4036559;29;20483;-81
2024/03/15 13:54:10;;;;;;;2.78;0.93;;;16.60;61.40;;;;;;4047675;29;20496;-78
2024/03/15 13:56:13;;;;;;;4.18;1.02;;;16.60;61.20;;;;;;4067165;29;20044;-79
2024/03/15 13:58:14;;;;;;;3.15;1.02;;;16.80;60.20;;;;;;4066678;29;20047;-77
2024/03/15 14:00:31;;;;;;;3.90;0.95;;;16.80;60.30;;;;;;4051201;29;20059;-77
2024/03/15 14:02:35;;;;;;;5.10;0.90;;;16.90;60.20;;;;;;4068741;29;20060;-80
2024/03/15 14:04:37;;;;;;;3.40;0.90;;;17.10;60.10;;;;;;4051414;28;20052;-79
2024/03/15 14:06:41;;;;;;;4.25;1.08;;;17.20;59.80;;;;;;4049294;29;20053;-79
2024/03/15 14:08:43;;;;;;;3.88;1.13;;;17.60;59.60;;;;;;4036652;29;20146;-79
2024/03/15 14:10:46;;;;;;;3.00;1.10;;;18.70;56.90;;;;;;4051012;29;20108;-77
2024/03/15 14:12:49;;;;;;;3.25;1.20;;;18.70;57.70;;;;;;4046186;29;20111;-78
2024/03/15 14:14:52;;;;;;;4.10;1.15;;;18.70;57.50;;;;;;4080558;29;20219;-79
2024/03/15 14:16:54;;;;;;;3.88;1.40;;;18.80;56.90;;;;;;4066586;29;20048;-80
2024/03/15 14:18:57;;;;;;;5.13;1.42;;;18.50;58.40;;;;;;4050933;29;20053;-77
2024/03/15 14:20:59;;;;;;;5.25;1.27;;;17.90;59.10;;;;;;4066463;29;20078;-79
2024/03/15 14:23:01;;;;;;;5.13;1.30;;;17.60;60.00;;;;;;4051210;29;20056;-79
2024/03/15 14:25:04;;;;;;;6.95;1.40;;;17.20;60.60;;;;;;4066317;29;20866;-78
2024/03/15 14:27:07;;;;;;;5.00;1.40;;;17.20;61.20;;;;;;4067072;29;20103;-78
2024/03/15 14:29:09;;;;;;;3.67;1.20;;;17.00;62.60;;;;;;4083336;29;20060;-80
2024/03/15 14:31:11;;;;;;;4.82;1.20;;;17.10;61.90;;;;;;4068938;28;20138;-81
2024/03/15 14:33:13;;;;;;;3.78;1.20;;;16.90;61.80;;;;;;4081969;29;20500;-80
2024/03/15 14:35:16;;;;;;;4.25;1.20;;;17.70;62.20;;;;;;4098088;29;20131;-79
2024/03/15 14:37:18;;;;;;;4.00;1.10;;;17.50;60.80;;;;;;4085327;29;20055;-80
2024/03/15 14:39:20;;;;;;;4.80;1.30;;;17.30;61.60;;;;;;4078895;29;20472;-80
2024/03/15 14:41:21;;;;;;;3.45;1.05;;;16.90;61.90;;;;;;4035480;29;20172;-78
2024/03/15 14:43:24;;;;;;;2.90;1.05;;;16.70;63.00;;;;;;4050559;29;20078;-78
2024/03/15 14:45:27;;;;;;;3.00;1.15;;;16.70;64.40;;;;;;4035527;29;20164;-77
2024/03/15 14:47:29;;;;;;;3.38;1.15;;;16.60;64.10;;;;;;4051944;29;20084;-79
2024/03/15 14:49:31;;;;;;;4.10;1.10;;;17.20;63.20;;;;;;4050764;29;20483;-78
2024/03/15 14:51:33;;;;;;;3.50;1.30;;;17.20;61.60;;;;;;4065894;29;20115;-81
2024/03/15 14:53:35;;;;;;;4.25;1.38;;;17.40;61.70;;;;;;4066144;29;21682;-78
2024/03/15 14:55:40;;;;;;;5.00;1.58;;;17.20;62.20;;;;;;4066012;29;20467;-78
2024/03/15 14:57:44;;;;;;;3.78;1.30;;;17.30;62.40;;;;;;4064666;29;20139;-76
2024/03/15 14:59:45;;;;;;;5.65;1.33;;;17.20;61.90;;;;;;4051993;28;20067;-76
2024/03/15 15:01:47;;;;;;;3.97;1.30;;;16.90;62.20;;;;;;4071402;28;20051;-78
2024/03/15 15:03:50;;;;;;;3.65;1.20;;;16.80;63.70;;;;;;4106258;28;20059;-78
2024/03/15 15:05:53;;;;;;;5.07;1.23;;;16.80;63.90;;;;;;4068800;28;20055;-77
2024/03/15 15:07:55;;;;;;;2.80;0.90;;;17.30;64.50;;;;;;4096596;28;20105;-78
2024/03/15 15:09:58;;;;;;;4.38;1.30;;;17.20;61.60;;;;;;4082711;28;20051;-78
2024/03/15 15:12:00;;;;;;;2.85;1.17;;;17.60;61.60;;;;;;4084249;29;20048;-77
2024/03/15 15:14:03;;;;;;;3.38;1.30;;;17.50;60.40;;;;;;4084072;29;20074;-77
2024/03/15 15:16:06;;;;;;;4.50;1.30;;;17.30;60.50;;;;;;4098568;28;20055;-78
2024/03/15 15:18:08;;;;;;;4.28;1.25;;;16.80;61.60;;;;;;4083121;28;20439;-78
2024/03/15 15:20:11;;;;;;;3.97;1.30;;;16.50;62.70;;;;;;4068434;29;20056;-78
2024/03/15 15:22:16;;;;;;;5.13;1.23;;;16.50;63.40;;;;;;4067935;28;20091;-78
2024/03/15 15:24:20;;;;;;;5.43;1.40;;;16.40;63.60;;;;;;4067906;28;20048;-77
2024/03/15 15:26:23;;;;;;;4.82;1.23;;;16.40;63.80;;;;;;4073089;29;20094;-77
2024/03/15 15:28:26;;;;;;;3.70;1.10;;;16.40;63.80;;;;;;4068658;29;20056;-78
2024/03/15 15:30:27;;;;;;;4.03;1.08;;;16.40;63.90;;;;;;4085152;29;20051;-79
2024/03/15 15:32:30;;;;;;;3.75;1.20;;;16.20;63.50;;;;;;4068248;29;20161;-79
2024/03/15 15:34:32;;;;;;;3.80;1.30;;;16.10;64.30;;;;;;4052982;29;20112;-78
2024/03/15 15:36:33;;;;;;;3.30;1.23;;;16.10;64.30;;;;;;4076360;29;20060;-81
2024/03/15 15:38:35;;;;;;;4.55;1.17;;;16.00;63.90;;;;;;4081353;29;20062;-79
2024/03/15 15:40:38;;;;;;;5.75;1.40;;;16.00;64.70;;;;;;4065769;29;20112;-78
2024/03/15 15:42:40;;;;;;;4.10;1.30;;;16.00;65.00;;;;;;4065510;29;20094;-78
2024/03/15 15:44:44;;;;;;;4.82;1.15;;;16.00;64.80;;;;;;4065437;29;20102;-78
2024/03/15 15:46:46;;;;;;;3.83;1.27;;;16.00;65.20;;;;;;4085363;28;20505;-78
2024/03/15 15:48:48;;;;;;;3.78;1.20;;;16.10;65.50;;;;;;4080895;29;20477;-79
2024/03/15 15:50:50;;;;;;;4.78;1.20;;;16.10;65.40;;;;;;4065876;29;20633;-77
2024/03/15 15:52:52;;;;;;;4.07;1.40;;;16.00;64.90;;;;;;4084198;29;20102;-77
2024/03/15 15:54:55;;;;;;;3.33;1.25;;;16.00;65.20;;;;;;4067926;29;20078;-78
2024/03/15 15:56:57;;;;;;;4.95;1.20;;;16.00;65.70;;;;;;4080780;29;20044;-78
2024/03/15 15:58:59;;;;;;;4.13;1.40;;;15.90;65.90;;;;;;4065595;29;20117;-78
2024/03/15 16:01:01;;;;;;;4.28;1.08;;;15.90;66.20;;;;;;4053348;29;20055;-77
2024/03/15 16:03:04;;;;;;;5.72;2.40;;;15.90;66.00;;;;;;4066026;29;20052;-80
2024/03/15 16:05:08;;;;;;;4.35;1.23;;;16.00;66.20;;;;;;4081265;28;20048;-79
2024/03/15 16:07:10;;;;;;;4.38;1.40;;;15.90;66.30;;;;;;4073454;28;20135;-78
2024/03/15 16:09:13;;;;;;;3.00;1.20;;;15.90;66.60;;;;;;4081386;28;20080;-79
2024/03/15 16:11:16;;;;;;;2.80;1.10;;;15.80;67.40;;;;;;4081194;29;20051;-79
2024/03/15 16:13:22;;;;;;;3.90;1.10;;;15.70;67.80;;;;;;4081412;28;20086;-76
2024/03/15 16:15:24;;;;;;;6.63;1.20;;;15.70;68.10;;;;;;4081349;28;20082;-77
2024/03/15 16:17:26;;;;;;;5.15;1.50;;;15.80;68.10;;;;;;4081916;29;20054;-79
2024/03/15 16:19:28;;;;;;;5.60;1.17;;;15.70;68.20;;;;;;4066596;29;20083;-79
2024/03/15 16:21:30;;;;;;;4.88;1.30;;;15.60;68.60;;;;;;4065650;29;20099;-77
2024/03/15 16:23:34;;;;;;;4.25;1.13;;;15.60;68.90;;;;;;4050221;29;20108;-80
2024/03/15 16:25:36;;;;;;;4.25;1.30;;;15.60;69.10;;;;;;4053644;28;20137;-78
2024/03/15 16:27:38;;;;;;;5.38;1.33;;;15.60;69.60;;;;;;4083140;29;20106;-79
2024/03/15 16:29:41;;;;;;;5.80;1.15;;;15.70;69.60;;;;;;4082936;28;20106;-77
2024/03/15 16:31:43;;;;;;;3.83;1.25;;;15.60;69.60;;;;;;4089865;29;20596;-80
2024/03/15 16:33:46;;;;;;;4.38;1.38;;;15.60;70.00;;;;;;4100592;29;20465;-78
2024/03/15 16:35:48;;;;;;;5.15;1.60;;;15.60;70.10;;;;;;4073468;28;20134;-79
2024/03/15 16:37:50;;;;;;;4.95;1.30;;;15.50;69.90;;;;;;4081941;29;20103;-77
2024/03/15 16:39:52;;;;;;;4.97;1.48;;;15.50;69.70;;;;;;4070994;29;20052;-79
2024/03/15 16:41:55;;;;;;;6.35;1.50;;;15.60;69.90;;;;;;4051648;29;20060;-77
2024/03/15 16:43:56;;;;;;;3.13;1.15;;;15.60;70.10;;;;;;4066023;29;20060;-76
2024/03/15 16:46:01;;;;;;;4.53;1.70;;;15.60;69.90;;;;;;4086623;29;20058;-76